createdAt,value
2018-08-11T00:00:54.153Z,1.53
2018-08-11T00:05:48.677Z,1.40
2018-08-11T00:10:43.187Z,1.30
2018-08-11T00:15:37.774Z,1.57
2018-08-11T00:20:32.321Z,1.70
2018-08-11T00:25:26.834Z,1.87
2018-08-11T00:30:22.380Z,1.30
2018-08-11T00:35:17.231Z,1.50
2018-08-11T00:40:14.575Z,1.80
2018-08-11T00:45:11.776Z,1.43
2018-08-11T00:50:10.602Z,1.47
2018-08-11T00:55:07.079Z,1.40
2018-08-11T01:00:01.583Z,1.53
2018-08-11T01:04:56.284Z,1.60
2018-08-11T01:09:50.766Z,1.50
2018-08-11T01:14:45.282Z,1.30
2018-08-11T01:19:39.818Z,1.40
2018-08-11T01:24:34.275Z,1.23
2018-08-11T01:29:29.052Z,1.37
2018-08-11T01:34:23.646Z,1.40
2018-08-11T01:39:18.128Z,1.47
2018-08-11T01:44:12.725Z,1.83
2018-08-11T01:49:07.411Z,2.50
2018-08-11T01:54:01.892Z,2.40
2018-08-11T01:58:56.725Z,1.77
2018-08-11T02:03:51.207Z,1.03
2018-08-11T02:08:45.660Z,1.33
2018-08-11T02:13:40.142Z,1.60
2018-08-11T02:18:34.810Z,1.30
2018-08-11T02:23:29.292Z,1.03
2018-08-11T02:28:23.884Z,1.17
2018-08-11T02:33:18.340Z,1.00
2018-08-11T02:38:12.882Z,1.07
2018-08-11T02:43:07.367Z,1.10
2018-08-11T02:48:01.931Z,0.80
2018-08-11T02:52:56.584Z,1.10
2018-08-11T02:57:51.072Z,0.97
2018-08-11T03:02:45.824Z,1.20
2018-08-11T03:07:42.288Z,1.03
2018-08-11T03:12:36.774Z,1.00
2018-08-11T03:17:31.418Z,1.20
2018-08-11T03:22:25.932Z,1.10
2018-08-11T03:27:20.440Z,1.30
2018-08-11T03:32:14.973Z,1.03
2018-08-11T03:37:09.523Z,1.20
2018-08-11T03:42:04.696Z,1.27
2018-08-11T03:46:59.126Z,1.30
2018-08-11T03:51:53.640Z,1.13
2018-08-11T03:56:48.280Z,1.10
2018-08-11T04:01:43.108Z,1.20
2018-08-11T04:06:37.654Z,1.20
2018-08-11T04:11:32.340Z,1.47
2018-08-11T04:16:26.966Z,1.33
2018-08-11T04:21:21.438Z,1.47
2018-08-11T04:26:15.894Z,1.80
2018-08-11T04:31:10.368Z,1.67
2018-08-11T04:36:04.790Z,1.80
2018-08-11T04:40:59.315Z,1.70
2018-08-11T04:45:53.811Z,1.90
2018-08-11T04:50:48.349Z,1.50
2018-08-11T04:55:43.100Z,1.80
2018-08-11T05:00:37.638Z,1.90
2018-08-11T05:05:32.292Z,2.10
2018-08-11T05:10:27.014Z,2.20
2018-08-11T05:15:21.592Z,2.03
2018-08-11T05:20:16.302Z,2.17
2018-08-11T05:25:10.927Z,2.00
2018-08-11T05:30:06.461Z,2.30
2018-08-11T05:35:00.935Z,2.23
2018-08-11T05:39:55.404Z,2.50
2018-08-11T05:44:49.881Z,2.30
2018-08-11T05:49:44.593Z,2.17
2018-08-11T05:54:39.094Z,1.80
2018-08-11T05:59:33.602Z,1.93
2018-08-11T06:04:28.441Z,1.50
2018-08-11T06:09:22.940Z,1.80
2018-08-11T06:14:17.582Z,1.73
2018-08-11T06:19:12.083Z,1.60
2018-08-11T06:24:06.554Z,2.07
2018-08-11T06:29:01.300Z,1.83
2018-08-11T06:33:55.962Z,1.90
2018-08-11T06:38:50.731Z,1.60
2018-08-11T06:43:45.300Z,2.10
2018-08-11T06:48:40.070Z,1.80
2018-08-11T06:53:34.815Z,1.93
2018-08-11T06:58:29.576Z,1.70
2018-08-11T07:03:24.485Z,1.57
2018-08-11T07:08:19.260Z,1.60
2018-08-11T07:13:14.030Z,1.80
2018-08-11T07:18:08.819Z,1.60
2018-08-11T07:23:03.637Z,1.53
2018-08-11T07:27:58.367Z,1.30
2018-08-11T07:32:53.165Z,1.27
2018-08-11T07:37:48.177Z,1.50
2018-08-11T07:42:43.739Z,1.40
2018-08-11T07:47:38.662Z,1.50
2018-08-11T07:52:33.846Z,1.10
2018-08-11T07:57:28.635Z,1.30
2018-08-11T08:02:23.538Z,1.20
2018-08-11T08:07:18.258Z,1.40
2018-08-11T08:12:13.015Z,1.30
2018-08-11T08:17:07.979Z,1.03
2018-08-11T08:22:02.956Z,0.90
2018-08-11T08:26:57.724Z,1.10
2018-08-11T08:31:52.695Z,1.47
2018-08-11T08:36:47.555Z,1.37
2018-08-11T08:41:42.583Z,1.00
2018-08-11T08:46:37.707Z,1.10
2018-08-11T08:51:32.468Z,1.30
2018-08-11T08:56:27.256Z,1.60
2018-08-11T09:01:22.154Z,1.20
2018-08-11T09:06:16.929Z,1.00
2018-08-11T09:11:11.881Z,1.10
2018-08-11T09:16:06.659Z,1.10
2018-08-11T09:21:01.685Z,1.00
2018-08-11T09:25:56.411Z,1.17
2018-08-11T09:30:51.470Z,1.20
2018-08-11T09:35:46.577Z,1.10
2018-08-11T09:40:41.336Z,1.40
2018-08-11T09:45:36.109Z,1.10
2018-08-11T09:50:31.044Z,1.23
2018-08-11T09:55:26.242Z,1.10
2018-08-11T10:00:26.496Z,1.00
2018-08-11T10:05:21.688Z,1.40
2018-08-11T10:10:16.653Z,1.00
2018-08-11T10:15:11.535Z,1.13
2018-08-11T10:20:06.568Z,1.00
2018-08-11T10:25:01.615Z,1.00
2018-08-11T10:29:56.720Z,1.03
2018-08-11T10:34:51.501Z,1.30
2018-08-11T10:39:46.297Z,1.30
2018-08-11T10:44:41.270Z,1.23
2018-08-11T10:49:36.142Z,1.43
2018-08-11T10:54:31.944Z,1.13
2018-08-11T10:59:26.688Z,1.27
2018-08-11T11:04:21.203Z,1.23
2018-08-11T11:09:15.666Z,1.10
2018-08-11T11:14:10.335Z,1.00
2018-08-11T11:19:05.089Z,1.10
2018-08-11T11:23:59.735Z,1.23
2018-08-11T11:28:54.591Z,1.10
2018-08-11T11:33:49.156Z,1.00
2018-08-11T11:38:43.620Z,1.00
2018-08-11T11:43:38.275Z,1.00
2018-08-11T11:48:33.180Z,1.30
2018-08-11T11:53:27.662Z,1.30
2018-08-11T11:58:22.321Z,1.40
2018-08-11T12:03:16.820Z,1.20
2018-08-11T12:08:11.585Z,1.00
2018-08-11T12:13:06.606Z,1.63
2018-08-11T12:18:01.244Z,1.10
2018-08-11T12:22:55.739Z,1.27
2018-08-11T12:27:50.445Z,1.00
2018-08-11T12:32:44.933Z,1.00
2018-08-11T12:37:39.452Z,1.00
2018-08-11T12:42:34.013Z,1.03
2018-08-11T12:47:28.537Z,1.10
2018-08-11T12:52:23.039Z,1.10
2018-08-11T12:57:17.553Z,1.20
2018-08-11T13:02:12.524Z,0.93
2018-08-11T13:07:07.826Z,0.90
2018-08-11T13:12:02.438Z,0.93
2018-08-11T13:16:57.138Z,1.03
2018-08-11T13:21:51.744Z,1.00
2018-08-11T13:26:46.565Z,1.00
2018-08-11T13:31:41.046Z,1.00
2018-08-11T13:36:35.643Z,0.87
2018-08-11T13:41:49.002Z,1.10
2018-08-11T13:46:43.502Z,1.00
2018-08-11T13:51:38.739Z,1.30
2018-08-11T13:56:33.638Z,1.00
2018-08-11T14:01:28.153Z,1.20
2018-08-11T14:06:22.798Z,1.10
2018-08-11T14:11:17.300Z,0.80
2018-08-11T14:16:11.871Z,1.10
2018-08-11T14:21:06.676Z,1.10
2018-08-11T14:26:01.465Z,1.00
2018-08-11T14:30:55.990Z,1.10
2018-08-11T14:35:50.530Z,1.10
2018-08-11T14:40:45.019Z,0.90
2018-08-11T14:45:39.560Z,1.17
2018-08-11T14:50:34.225Z,1.17
2018-08-11T14:55:28.855Z,1.20
2018-08-11T15:00:23.378Z,1.10
2018-08-11T15:05:18.013Z,1.10
2018-08-11T15:10:12.608Z,1.10
2018-08-11T15:15:08.564Z,1.20
2018-08-11T15:20:03.027Z,1.07
2018-08-11T15:24:57.694Z,1.33
2018-08-11T15:29:52.141Z,1.50
2018-08-11T15:34:46.789Z,1.27
2018-08-11T15:39:41.306Z,0.90
2018-08-11T15:44:35.828Z,1.83
2018-08-11T15:49:30.830Z,1.20
2018-08-11T15:54:25.360Z,1.37
2018-08-11T15:59:20.006Z,1.40
2018-08-11T16:04:14.728Z,1.17
2018-08-11T16:09:10.341Z,1.03
2018-08-11T16:14:06.949Z,1.40
2018-08-11T16:19:01.681Z,1.47
2018-08-11T16:23:56.149Z,1.30
2018-08-11T16:28:50.721Z,1.30
2018-08-11T16:33:45.429Z,1.17
2018-08-11T16:38:39.956Z,1.30
2018-08-11T16:43:34.450Z,1.30
2018-08-11T16:48:29.015Z,1.10
2018-08-11T16:53:23.868Z,1.30
2018-08-11T16:58:18.520Z,1.53
2018-08-11T17:03:13.028Z,1.50
2018-08-11T17:08:07.583Z,1.27
2018-08-11T17:13:02.154Z,1.40
2018-08-11T17:17:56.692Z,1.20
2018-08-11T17:22:51.168Z,1.40
2018-08-11T17:27:45.716Z,1.33
2018-08-11T17:32:40.332Z,1.23
2018-08-11T17:37:34.907Z,1.23
2018-08-11T17:42:29.418Z,1.33
2018-08-11T17:47:24.081Z,1.10
2018-08-11T17:52:18.602Z,1.23
2018-08-11T17:57:13.310Z,1.37
2018-08-11T18:02:07.883Z,1.30
2018-08-11T18:07:02.600Z,1.20
2018-08-11T18:11:57.232Z,1.20
2018-08-11T18:16:51.774Z,1.27
2018-08-11T18:21:46.467Z,1.40
2018-08-11T18:26:41.023Z,1.30
2018-08-11T18:31:35.645Z,1.40
2018-08-11T18:36:30.106Z,1.47
2018-08-11T18:41:24.886Z,1.70
2018-08-11T18:46:19.440Z,1.20
2018-08-11T18:51:14.241Z,1.37
2018-08-11T18:56:08.738Z,1.27
2018-08-11T19:01:03.356Z,1.40
2018-08-11T19:05:57.975Z,1.50
2018-08-11T19:10:52.459Z,1.40
2018-08-11T19:15:47.204Z,1.60
2018-08-11T19:20:41.809Z,1.70
2018-08-11T19:25:36.398Z,1.77
2018-08-11T19:30:31.028Z,1.67
2018-08-11T19:35:25.515Z,1.73
2018-08-11T19:40:19.978Z,1.53
2018-08-11T19:45:14.519Z,1.80
2018-08-11T19:50:11.026Z,1.60
2018-08-11T19:55:06.276Z,1.70
2018-08-11T20:00:00.780Z,1.70
2018-08-11T20:04:55.290Z,1.97
2018-08-11T20:09:49.847Z,1.80
2018-08-11T20:14:44.338Z,1.40
2018-08-11T20:19:38.889Z,1.90
2018-08-11T20:24:33.379Z,1.60
2018-08-11T20:29:28.193Z,2.00
2018-08-11T20:34:22.666Z,2.07
2018-08-11T20:39:17.170Z,1.97
2018-08-11T20:44:11.823Z,1.80
2018-08-11T20:49:06.283Z,2.20
2018-08-11T20:54:00.876Z,2.30
2018-08-11T20:58:55.326Z,2.27
2018-08-11T21:03:49.778Z,2.00
2018-08-11T21:08:44.549Z,2.13
2018-08-11T21:13:39.036Z,1.80
2018-08-11T21:18:33.516Z,1.90
2018-08-11T21:23:28.051Z,1.87
2018-08-11T21:28:22.659Z,1.70
2018-08-11T21:33:17.127Z,1.80
2018-08-11T21:38:11.768Z,1.77
2018-08-11T21:43:06.437Z,1.80
2018-08-11T21:48:01.021Z,2.23
2018-08-11T21:52:55.500Z,2.47
2018-08-11T21:57:50.181Z,2.00
2018-08-11T22:02:44.650Z,1.90
2018-08-11T22:07:39.344Z,2.30
2018-08-11T22:12:33.826Z,2.47
2018-08-11T22:17:28.431Z,2.30
2018-08-11T22:22:22.918Z,2.70
2018-08-11T22:27:17.400Z,2.00
2018-08-11T22:32:11.914Z,2.23
2018-08-11T22:37:06.536Z,2.40
2018-08-11T22:42:01.195Z,2.53
2018-08-11T22:46:55.738Z,2.20
2018-08-11T22:51:50.233Z,2.47
2018-08-11T22:56:44.795Z,2.57
2018-08-11T23:01:39.247Z,2.33
2018-08-11T23:06:33.744Z,2.47
2018-08-11T23:11:28.269Z,2.10
2018-08-11T23:16:22.810Z,2.10
2018-08-11T23:21:17.699Z,2.50
2018-08-11T23:26:12.224Z,2.20
2018-08-11T23:31:06.673Z,2.47
2018-08-11T23:36:01.160Z,2.30
2018-08-11T23:40:55.630Z,3.00
2018-08-11T23:45:50.117Z,2.60
2018-08-11T23:50:44.637Z,2.43
2018-08-11T23:55:39.299Z,2.63
